Time;durP1;ratioP1;P1;durP2;ratioP2;P2;SDS_P1;SDS_P2;PMS_P1;PMS_P2;Temp;Humidity;BMP_temperature;BMP_pressure;BME280_temperature;BME280_humidity;BME280_pressure;Samples;Min_cycle;Max_cycle;Signal;HPM_P1;HPM_P2
2022/08/05 00:02:18;;;;;;;12.98;12.07;;;;;;;23.15;49.35;100137.13;4993759;28;20515;-74
2022/08/05 00:04:44;;;;;;;14.73;13.70;;;;;;;23.09;48.83;100129.44;4993648;28;20548;-74
2022/08/05 00:07:10;;;;;;;13.55;12.55;;;;;;;23.07;49.38;100131.38;4993453;28;20553;-75
2022/08/05 00:09:35;;;;;;;14.23;13.32;;;;;;;23.05;49.37;100133.28;4993849;28;20073;-74
2022/08/05 00:12:00;;;;;;;14.70;13.80;;;;;;;23.01;49.71;100128.22;4993444;28;20054;-74
2022/08/05 00:14:26;;;;;;;14.60;13.65;;;;;;;22.97;49.70;100123.00;4993771;28;20077;-74
2022/08/05 00:16:51;;;;;;;15.77;14.77;;;;;;;22.93;49.87;100129.53;4991990;28;20496;-75
2022/08/05 00:19:16;;;;;;;14.25;13.35;;;;;;;22.91;48.81;100120.69;4993590;28;20096;-74
2022/08/05 00:21:42;;;;;;;13.30;12.50;;;;;;;22.92;49.56;100133.22;4993202;28;20046;-74
2022/08/05 00:24:07;;;;;;;13.90;12.85;;;;;;;22.89;49.39;100127.13;4993366;28;20070;-74
2022/08/05 00:26:32;;;;;;;14.93;13.82;;;;;;;22.85;50.09;100133.69;4993556;28;20092;-74
2022/08/05 00:28:58;;;;;;;12.82;11.90;;;;;;;22.75;50.53;100131.56;4975918;28;20030;-74
2022/08/05 00:31:23;;;;;;;13.95;12.95;;;;;;;22.74;50.18;100123.59;4993102;28;20435;-75
2022/08/05 00:33:48;;;;;;;12.93;12.13;;;;;;;22.75;50.18;100126.19;4996244;28;20437;-74
2022/08/05 00:36:14;;;;;;;14.00;13.00;;;;;;;22.69;50.62;100121.22;4997341;28;20081;-74
2022/08/05 00:38:39;;;;;;;14.55;13.65;;;;;;;22.66;50.38;100126.78;4993234;28;20034;-75
2022/08/05 00:41:06;;;;;;;12.63;11.80;;;;;;;22.63;50.36;100118.88;4995114;28;20097;-74
2022/08/05 00:43:33;;;;;;;14.90;13.77;;;;;;;22.64;50.45;100123.31;4997599;28;20034;-74
2022/08/05 00:45:58;;;;;;;14.43;13.57;;;;;;;22.70;50.28;100125.63;4993042;28;20089;-74
2022/08/05 00:48:24;;;;;;;12.93;12.13;;;;;;;22.70;50.28;100128.31;4993149;28;20046;-74
2022/08/05 00:50:51;;;;;;;13.32;12.43;;;;;;;22.69;50.51;100128.41;4993076;28;20049;-75
2022/08/05 00:53:19;;;;;;;12.38;11.48;;;;;;;22.63;50.85;100129.63;4992571;28;20042;-74
2022/08/05 00:55:45;;;;;;;14.13;12.90;;;;;;;22.55;50.14;100126.56;4992754;28;20054;-74
2022/08/05 00:58:11;;;;;;;13.55;12.65;;;;;;;22.56;50.31;100125.63;4992916;28;20038;-74
2022/08/05 01:00:38;;;;;;;13.65;12.75;;;;;;;22.51;50.57;100123.22;4992832;28;20397;-75
2022/08/05 01:03:04;;;;;;;13.18;12.20;;;;;;;22.51;51.27;100122.34;4992421;28;20445;-75
2022/08/05 01:05:29;;;;;;;13.82;12.40;;;;;;;22.40;51.71;100123.03;4992428;28;20780;-75
2022/08/05 01:07:54;;;;;;;13.35;12.55;;;;;;;22.41;50.90;100123.88;4992662;28;20049;-74
2022/08/05 01:10:27;;;;;;;12.98;11.98;;;;;;;22.47;51.30;100123.50;4991470;28;20041;-74
2022/08/05 01:12:57;;;;;;;14.68;13.77;;;;;;;22.47;51.13;100127.03;4992379;28;20084;-74
2022/08/05 01:15:33;;;;;;;13.85;13.05;;;;;;;22.54;50.71;100127.53;4992452;28;20722;-74
2022/08/05 01:18:08;;;;;;;12.00;11.10;;;;;;;22.52;51.28;100122.25;4989312;28;20062;-75
2022/08/05 01:20:38;;;;;;;14.25;13.35;;;;;;;22.47;51.19;100124.34;4992499;28;20045;-74
2022/08/05 01:23:20;;;;;;;13.23;12.20;;;;;;;22.47;51.55;100128.88;4992045;28;20485;-74
2022/08/05 01:26:12;;;;;;;14.00;13.10;;;;;;;22.49;51.53;100124.28;4992243;28;20045;-75
2022/08/05 01:28:57;;;;;;;12.98;12.10;;;;;;;22.53;51.02;100128.47;4991654;28;20397;-74
2022/08/05 01:31:28;;;;;;;15.20;14.23;;;;;;;22.57;50.13;100121.97;4990994;28;20026;-75
2022/08/05 01:34:23;;;;;;;14.00;12.90;;;;;;;22.59;50.66;100120.06;4989146;28;20536;-74
2022/08/05 01:36:54;;;;;;;14.80;13.82;;;;;;;22.58;50.16;100118.31;4989230;28;20052;-75
2022/08/05 01:39:21;;;;;;;12.60;11.80;;;;;;;22.52;50.60;100124.06;4992194;28;20042;-75
2022/08/05 01:41:49;;;;;;;12.88;12.18;;;;;;;22.42;51.00;100122.91;4991835;28;20042;-75
2022/08/05 01:44:15;;;;;;;12.55;11.75;;;;;;;22.33;51.71;100120.81;4988296;28;20038;-74
2022/08/05 01:46:41;;;;;;;13.85;12.93;;;;;;;22.17;51.72;100124.41;4992067;28;20045;-75
2022/08/05 01:49:09;;;;;;;14.10;12.98;;;;;;;22.01;53.03;100128.97;4991882;28;20080;-74
2022/08/05 01:51:36;;;;;;;12.75;11.98;;;;;;;21.92;52.87;100127.69;4991697;28;20070;-75
2022/08/05 01:54:06;;;;;;;13.55;12.65;;;;;;;21.97;52.61;100116.66;4991775;28;20481;-75
2022/08/05 01:56:36;;;;;;;13.80;12.90;;;;;;;22.09;51.64;100122.19;4988677;28;20042;-75
2022/08/05 01:59:05;;;;;;;12.27;11.32;;;;;;;22.12;52.38;100134.56;4991922;28;20525;-75
2022/08/05 02:01:33;;;;;;;12.85;12.05;;;;;;;22.06;52.12;100133.13;4963298;28;20632;-75
2022/08/05 02:04:00;;;;;;;13.32;12.15;;;;;;;22.09;51.93;100124.00;4974198;28;20038;-75
2022/08/05 02:06:25;;;;;;;15.02;14.10;;;;;;;22.17;51.30;100127.09;4973922;28;20042;-75
2022/08/05 02:08:51;;;;;;;14.52;13.43;;;;;;;22.24;51.48;100127.59;4990148;28;20045;-74
2022/08/05 02:11:18;;;;;;;14.15;13.35;;;;;;;22.19;51.36;100127.91;4991108;28;20125;-75
2022/08/05 02:13:54;;;;;;;13.15;12.35;;;;;;;22.15;51.78;100126.31;4973781;28;20075;-75
2022/08/05 02:16:29;;;;;;;13.02;12.23;;;;;;;22.10;51.94;100120.34;4989471;28;20042;-75
2022/08/05 02:19:02;;;;;;;13.60;12.50;;;;;;;22.02;52.53;100122.63;4991663;28;20165;-75
2022/08/05 02:21:33;;;;;;;13.10;12.05;;;;;;;21.98;52.33;100129.13;4986699;28;20038;-74
2022/08/05 02:24:05;;;;;;;15.32;14.23;;;;;;;22.08;51.48;100109.69;4991233;28;20027;-75
2022/08/05 02:26:38;;;;;;;17.42;16.25;;;;;;;22.24;51.57;100112.34;4991376;28;20034;-75
2022/08/05 02:29:06;;;;;;;13.25;12.35;;;;;;;22.18;51.78;100114.50;4991707;28;20042;-75
2022/08/05 02:31:34;;;;;;;12.93;12.02;;;;;;;22.08;51.68;100109.69;4991209;28;20026;-75
2022/08/05 02:34:07;;;;;;;15.20;14.00;;;;;;;22.11;51.89;100108.63;4991375;28;20049;-75
2022/08/05 02:36:35;;;;;;;18.08;16.77;;;;;;;22.16;51.18;100103.84;4988580;28;20065;-75
2022/08/05 02:39:01;;;;;;;13.35;12.50;;;;;;;;;;4974046;28;20044;-75
2022/08/05 02:41:28;;;;;;;12.55;11.75;;;;;;;22.03;51.87;100097.47;4991095;28;20050;-75
2022/08/05 02:43:55;;;;;;;13.52;12.70;;;;;;;21.98;52.07;100096.91;4991635;28;20041;-75
2022/08/05 02:46:22;;;;;;;12.30;11.40;;;;;;;21.89;52.30;100106.38;4987958;28;20105;-75
2022/08/05 02:48:48;;;;;;;12.68;11.77;;;;;;;21.75;52.57;100091.09;4991326;28;20042;-75
2022/08/05 02:51:15;;;;;;;17.13;15.73;;;;;;;21.77;52.83;100091.88;4995203;28;20045;-75
2022/08/05 02:53:42;;;;;;;13.77;12.77;;;;;;;21.82;53.19;100092.47;4991205;28;20505;-75
2022/08/05 02:56:10;;;;;;;13.65;12.57;;;;;;;21.69;53.45;100091.44;4990864;28;20411;-75
2022/08/05 02:58:37;;;;;;;13.02;12.23;;;;;;;21.64;53.11;100088.16;4974905;28;20066;-75
2022/08/05 03:01:04;;;;;;;13.93;12.95;;;;;;;21.62;53.00;100088.28;4992625;28;20041;-75
2022/08/05 03:03:31;;;;;;;13.65;12.73;;;;;;;21.63;53.01;100094.50;4991095;28;20117;-75
2022/08/05 03:05:57;;;;;;;12.68;11.63;;;;;;;21.62;53.33;100090.97;4991234;28;20053;-75
2022/08/05 03:08:23;;;;;;;11.95;11.13;;;;;;;21.63;53.09;100086.44;4991102;28;20061;-74
2022/08/05 03:10:48;;;;;;;13.85;12.85;;;;;;;21.62;53.33;100095.47;4991141;28;20073;-75
2022/08/05 03:13:15;;;;;;;14.07;12.88;;;;;;;21.60;53.97;100098.22;4989523;28;20489;-74
2022/08/05 03:15:45;;;;;;;11.93;11.13;;;;;;;21.51;54.10;100097.91;4991026;28;20461;-74
2022/08/05 03:18:10;;;;;;;12.70;11.88;;;;;;;21.35;54.02;100093.41;4975816;28;20041;-75
2022/08/05 03:20:36;;;;;;;12.48;11.50;;;;;;;21.24;54.21;100090.47;4997861;28;20408;-75
2022/08/05 03:23:06;;;;;;;13.15;12.02;;;;;;;21.24;54.56;100090.47;4992621;28;20038;-75
2022/08/05 03:25:33;;;;;;;14.23;13.20;;;;;;;21.26;54.42;100085.88;4994534;28;20169;-75
2022/08/05 03:28:00;;;;;;;14.07;12.98;;;;;;;21.24;55.13;100085.94;4994513;28;20770;-74
2022/08/05 03:30:27;;;;;;;12.63;11.52;;;;;;;21.24;55.87;100087.78;4994030;28;20033;-74
2022/08/05 03:32:53;;;;;;;12.35;11.55;;;;;;;21.16;55.73;100088.22;4996639;28;20030;-74
2022/08/05 03:35:20;;;;;;;12.85;11.73;;;;;;;21.16;56.17;100087.34;4996877;28;20026;-75
2022/08/05 03:37:45;;;;;;;13.82;12.73;;;;;;;21.19;56.42;100087.16;4988457;28;20440;-75
2022/08/05 03:40:11;;;;;;;15.80;12.20;;;;;;;21.16;56.61;100084.66;4990511;28;20048;-75
2022/08/05 03:42:38;;;;;;;13.77;12.63;;;;;;;21.19;56.85;100089.84;4992793;28;20057;-75
2022/08/05 03:45:04;;;;;;;13.25;12.20;;;;;;;21.17;57.08;100089.09;4976596;28;20377;-75
2022/08/05 03:47:30;;;;;;;11.75;10.65;;;;;;;21.17;57.33;100089.09;4976598;28;20431;-75
2022/08/05 03:49:55;;;;;;;13.15;11.95;;;;;;;21.15;57.45;100091.84;4994050;28;20038;-74
2022/08/05 03:52:28;;;;;;;13.32;12.25;;;;;;;21.02;57.06;100089.00;4993488;28;20031;-75
2022/08/05 03:55:00;;;;;;;12.93;11.73;;;;;;;20.96;56.62;100089.34;4998709;28;20109;-74
2022/08/05 03:57:32;;;;;;;13.05;12.13;;;;;;;20.93;56.94;100084.16;4990880;28;20042;-75
2022/08/05 04:00:03;;;;;;;15.10;11.75;;;;;;;20.95;56.91;100084.94;4993966;28;20050;-74
2022/08/05 04:02:41;;;;;;;11.90;11.10;;;;;;;20.97;56.88;100088.41;4990628;28;20077;-74
2022/08/05 04:05:08;;;;;;;12.10;11.20;;;;;;;20.97;57.08;100082.16;4991819;28;20118;-75
2022/08/05 04:07:34;;;;;;;13.50;12.55;;;;;;;21.01;57.25;100091.75;4998607;28;20053;-75
2022/08/05 04:10:01;;;;;;;11.13;10.32;;;;;;;21.04;56.83;100088.03;4996373;28;20042;-75
2022/08/05 04:12:27;;;;;;;13.02;12.05;;;;;;;21.13;56.95;100100.94;4992988;28;20115;-74
2022/08/05 04:14:53;;;;;;;12.93;11.73;;;;;;;21.02;57.06;100097.06;4993481;28;20050;-75
2022/08/05 04:17:18;;;;;;;12.80;11.80;;;;;;;21.08;57.32;100094.97;4993508;28;20030;-75
2022/08/05 04:19:46;;;;;;;13.00;12.10;;;;;;;21.17;57.39;100097.16;4993362;28;20038;-74
2022/08/05 04:22:12;;;;;;;12.43;11.20;;;;;;;21.18;57.59;100102.41;4985468;28;20034;-74
2022/08/05 04:24:40;;;;;;;11.93;10.88;;;;;;;21.23;57.41;100105.69;4994002;28;20397;-74
2022/08/05 04:27:05;;;;;;;12.75;11.85;;;;;;;21.28;57.75;100105.44;4994996;28;20631;-74
2022/08/05 04:29:30;;;;;;;12.38;11.38;;;;;;;21.26;57.41;100101.97;4989920;28;20129;-75
2022/08/05 04:31:55;;;;;;;13.00;12.00;;;;;;;21.35;56.78;100106.84;4993085;28;20045;-75
2022/08/05 04:34:21;;;;;;;13.60;12.70;;;;;;;21.44;56.67;100098.25;4996219;28;20034;-75
2022/08/05 04:36:46;;;;;;;13.45;12.23;;;;;;;21.56;57.02;100103.84;4992910;28;20081;-75
2022/08/05 04:39:12;;;;;;;13.73;12.52;;;;;;;21.67;56.79;100104.13;4999270;28;20038;-75
2022/08/05 04:41:37;;;;;;;13.43;12.30;;;;;;;21.75;57.04;100109.91;4993909;28;20057;-75
2022/08/05 04:44:02;;;;;;;13.10;12.23;;;;;;;21.73;57.93;100122.53;4992118;28;20026;-75
2022/08/05 04:46:28;;;;;;;13.02;12.10;;;;;;;21.83;57.63;100113.00;4992154;28;20038;-75
2022/08/05 04:48:53;;;;;;;12.30;11.40;;;;;;;21.97;56.79;100111.28;4993458;28;20121;-76
2022/08/05 04:51:18;;;;;;;11.20;10.35;;;;;;;22.02;55.99;100128.88;4991776;28;20041;-76
2022/08/05 04:53:44;;;;;;;13.57;12.57;;;;;;;22.10;56.56;100125.72;4991542;28;20042;-75
2022/08/05 04:56:09;;;;;;;13.77;12.80;;;;;;;22.15;57.15;100137.06;4998561;28;20064;-75
2022/08/05 04:58:35;;;;;;;12.88;11.57;;;;;;;22.24;56.22;100130.28;4996273;28;20038;-76
2022/08/05 05:01:00;;;;;;;11.93;11.02;;;;;;;22.34;56.08;100141.34;4990861;28;20085;-76
2022/08/05 05:03:25;;;;;;;16.05;14.63;;;;;;;22.39;55.18;100137.41;4996284;28;20036;-76
2022/08/05 05:05:51;;;;;;;10.65;9.70;;;;;;;22.46;53.71;100146.84;4994749;28;20385;-75
2022/08/05 05:08:16;;;;;;;12.23;11.32;;;;;;;22.55;53.85;100145.41;4992593;28;20416;-75
2022/08/05 05:10:44;;;;;;;12.15;10.88;;;;;;;22.63;53.56;100150.31;4992569;28;20517;-75
2022/08/05 05:13:11;;;;;;;11.48;10.68;;;;;;;22.66;54.20;100145.63;4991182;28;20034;-76
2022/08/05 05:15:37;;;;;;;13.07;11.75;;;;;;;22.69;53.44;100141.88;4992299;28;20276;-75
2022/08/05 05:18:03;;;;;;;13.25;12.25;;;;;;;22.71;52.92;100135.41;4992179;28;20038;-76
2022/08/05 05:20:28;;;;;;;12.02;11.00;;;;;;;22.76;52.35;100132.44;4991705;28;20478;-75
2022/08/05 05:22:53;;;;;;;12.70;11.50;;;;;;;22.88;51.83;100131.66;4996102;28;20034;-75
2022/08/05 05:25:19;;;;;;;13.63;12.13;;;;;;;22.94;51.32;100125.88;4992277;28;20031;-76
2022/08/05 05:27:44;;;;;;;13.70;12.60;;;;;;;23.01;51.08;100122.84;4998447;28;20045;-76
2022/08/05 05:30:10;;;;;;;13.38;12.25;;;;;;;23.14;50.83;100132.72;4990982;28;20492;-75
2022/08/05 05:32:36;;;;;;;11.90;11.00;;;;;;;23.25;50.63;100131.16;4991847;28;20516;-76
2022/08/05 05:35:01;;;;;;;11.18;9.85;;;;;;;23.28;51.32;100139.03;4993796;28;20073;-76
2022/08/05 05:37:26;;;;;;;12.40;11.20;;;;;;;23.33;50.66;100145.84;4996834;28;20046;-76
2022/08/05 05:39:52;;;;;;;12.48;11.48;;;;;;;23.44;50.77;100134.34;4989689;28;20045;-76
2022/08/05 05:42:17;;;;;;;14.48;13.35;;;;;;;23.60;50.61;100134.19;4991764;28;20050;-75
2022/08/05 05:44:42;;;;;;;13.73;12.60;;;;;;;23.74;49.67;100142.28;4974453;28;20035;-76
2022/08/05 05:47:08;;;;;;;13.95;12.90;;;;;;;23.91;49.63;100151.03;4991849;28;20038;-76
2022/08/05 05:49:33;;;;;;;12.77;11.73;;;;;;;23.96;49.17;100159.69;4991937;28;20053;-76
2022/08/05 05:51:58;;;;;;;13.13;12.13;;;;;;;24.03;49.19;100169.94;4991633;28;20050;-76
2022/08/05 05:54:24;;;;;;;13.40;12.45;;;;;;;24.06;48.91;100172.44;4991803;28;20038;-76
2022/08/05 05:56:49;;;;;;;14.70;13.60;;;;;;;24.15;48.80;100183.53;4988119;28;20038;-76
2022/08/05 05:59:14;;;;;;;15.77;14.68;;;;;;;24.22;48.57;100201.91;4991896;28;20088;-75
2022/08/05 06:01:41;;;;;;;14.23;12.98;;;;;;;24.22;48.73;100185.72;4991350;28;20038;-75
2022/08/05 06:04:09;;;;;;;14.30;13.32;;;;;;;24.27;48.91;100166.53;4991243;28;20038;-76
2022/08/05 06:06:35;;;;;;;14.07;13.18;;;;;;;24.36;48.91;100170.41;4973188;28;20117;-76
2022/08/05 06:09:02;;;;;;;14.38;13.05;;;;;;;24.47;48.69;100211.03;4991414;28;20474;-76
2022/08/05 06:11:27;;;;;;;14.70;13.52;;;;;;;24.52;49.63;100210.72;4991419;28;20496;-76
2022/08/05 06:13:53;;;;;;;15.85;12.90;;;;;;;24.52;49.53;100210.72;4995274;28;20038;-76
2022/08/05 06:16:18;;;;;;;17.20;15.77;;;;;;;24.62;49.90;100222.59;5009510;23;20099;-74
2022/08/05 06:18:43;;;;;;;12.95;11.95;;;;;;;24.46;50.43;100231.75;4985368;28;20046;-74
2022/08/05 06:21:09;;;;;;;14.32;13.32;;;;;;;24.55;50.46;100218.59;4982427;28;20092;-74
2022/08/05 06:23:34;;;;;;;14.90;13.55;;;;;;;24.70;50.55;100239.09;4985477;28;20046;-74
2022/08/05 06:25:59;;;;;;;12.57;11.48;;;;;;;24.77;50.47;100232.31;4987598;28;20101;-74
2022/08/05 06:28:25;;;;;;;13.02;11.93;;;;;;;24.81;52.12;100233.84;4982780;28;20034;-74
2022/08/05 06:30:50;;;;;;;13.30;12.20;;;;;;;24.73;53.22;100230.78;4981642;28;20460;-74
2022/08/05 06:33:15;;;;;;;14.65;13.68;;;;;;;24.82;54.04;100226.59;4983450;28;20439;-73
2022/08/05 06:35:41;;;;;;;14.70;13.60;;;;;;;24.80;54.00;100234.78;4984693;28;20412;-74
2022/08/05 06:38:06;;;;;;;12.95;11.88;;;;;;;24.83;54.51;100252.63;4983266;28;20069;-74
2022/08/05 06:40:31;;;;;;;15.77;14.65;;;;;;;24.84;54.47;100244.41;4980057;28;20051;-74
2022/08/05 06:42:57;;;;;;;11.75;10.90;;;;;;;24.90;55.10;100262.88;4982663;28;20046;-74
2022/08/05 06:45:23;;;;;;;16.25;15.02;;;;;;;24.92;55.01;100251.97;4981044;28;20030;-74
2022/08/05 06:47:48;;;;;;;13.13;12.13;;;;;;;25.04;55.26;100258.34;4981816;28;20120;-74
2022/08/05 06:50:14;;;;;;;14.00;13.00;;;;;;;25.31;54.17;100255.56;4983582;28;20085;-74
2022/08/05 06:52:39;;;;;;;12.65;11.63;;;;;;;25.29;55.16;100255.66;4986791;28;20049;-74
2022/08/05 06:55:06;;;;;;;13.88;12.88;;;;;;;25.49;54.92;100253.31;4987063;28;20121;-74
2022/08/05 06:57:31;;;;;;;14.55;13.07;;;;;;;25.69;54.66;100259.97;4983794;28;20132;-74
2022/08/05 06:59:56;;;;;;;12.80;11.90;;;;;;;25.77;54.30;100255.72;4986194;28;20077;-75
2022/08/05 07:02:22;;;;;;;14.30;11.60;;;;;;;25.95;53.78;100258.94;4984748;28;20096;-74
2022/08/05 07:04:47;;;;;;;15.75;13.27;;;;;;;26.07;53.96;100259.88;4985316;28;20030;-74
2022/08/05 07:07:12;;;;;;;13.85;12.73;;;;;;;26.07;53.99;100257.19;4986068;28;20065;-74
2022/08/05 07:09:38;;;;;;;15.80;14.40;;;;;;;26.15;53.71;100262.88;4983775;28;20038;-74
2022/08/05 07:12:03;;;;;;;14.05;12.90;;;;;;;25.99;54.14;100264.97;4965475;28;20039;-75
2022/08/05 07:17:12;;;;;;;15.05;13.75;;;;;;;26.19;53.54;100263.47;4986444;28;20045;-74
2022/08/05 07:19:38;;;;;;;19.35;17.95;;;;;;;26.18;53.50;100259.06;4983613;28;20042;-75
2022/08/05 07:22:03;;;;;;;15.90;14.77;;;;;;;26.08;53.87;100266.16;4985755;28;20427;-74
2022/08/05 07:24:29;;;;;;;13.68;12.52;;;;;;;26.02;53.62;100252.09;4987602;28;20494;-74
2022/08/05 07:26:54;;;;;;;14.52;13.32;;;;;;;26.03;54.03;100258.38;4984581;28;20081;-74
2022/08/05 07:29:19;;;;;;;15.18;13.55;;;;;;;26.44;53.38;100257.09;4985693;28;20042;-74
2022/08/05 07:31:45;;;;;;;16.23;14.90;;;;;;;26.58;52.25;100253.34;4983102;28;20070;-74
2022/08/05 07:34:11;;;;;;;15.85;14.57;;;;;;;26.48;52.46;100263.97;4986312;28;20042;-74
2022/08/05 07:36:36;;;;;;;15.35;14.35;;;;;;;26.67;52.17;100269.72;4983644;28;20035;-74
2022/08/05 07:39:04;;;;;;;17.70;16.27;;;;;;;26.76;51.50;100270.00;4984892;28;20045;-74
2022/08/05 07:41:30;;;;;;;14.80;13.60;;;;;;;26.70;51.81;100265.94;4984818;28;20050;-74
2022/08/05 07:43:57;;;;;;;19.27;17.88;;;;;;;26.91;50.89;100274.22;4982895;28;20022;-74
2022/08/05 07:46:24;;;;;;;14.98;13.98;;;;;;;26.71;51.48;100274.91;4982809;28;20148;-74
2022/08/05 07:48:50;;;;;;;15.75;14.75;;;;;;;26.64;51.96;100286.19;4985933;28;20038;-74
2022/08/05 07:51:15;;;;;;;22.15;20.40;;;;;;;26.53;52.04;100291.56;4988764;28;20045;-75
2022/08/05 07:53:41;;;;;;;16.65;15.55;;;;;;;26.40;52.29;100286.19;4986299;28;20043;-73
2022/08/05 07:56:06;;;;;;;15.38;14.13;;;;;;;26.37;52.67;100294.56;4983529;28;20061;-74
2022/08/05 07:58:32;;;;;;;14.50;13.50;;;;;;;26.52;52.17;100302.53;4985629;28;20425;-74
2022/08/05 08:00:57;;;;;;;14.13;12.73;;;;;;;26.54;51.83;100306.84;4985885;28;20412;-74
2022/08/05 08:03:23;;;;;;;18.00;16.33;;;;;;;26.58;51.94;100313.72;4981881;28;20035;-74
2022/08/05 08:05:51;;;;;;;40.00;37.55;;;;;;;26.77;51.65;100315.03;4988264;28;20600;-74
2022/08/05 08:08:16;;;;;;;17.40;16.23;;;;;;;26.84;51.78;100309.00;4984216;28;20500;-74
2022/08/05 08:10:42;;;;;;;17.02;15.40;;;;;;;26.75;51.37;100319.69;4983877;28;20066;-74
2022/08/05 08:13:07;;;;;;;15.20;14.05;;;;;;;27.07;51.33;100304.50;4988549;28;20068;-75
2022/08/05 08:15:32;;;;;;;15.95;13.45;;;;;;;27.47;50.41;100284.25;4984465;28;20128;-75
2022/08/05 08:17:58;;;;;;;15.60;14.50;;;;;;;27.72;49.09;100277.69;4993035;28;20049;-74
2022/08/05 08:20:24;;;;;;;14.52;13.43;;;;;;;27.82;49.11;100299.50;4989634;28;20117;-74
2022/08/05 08:22:54;;;;;;;18.38;17.27;;;;;;;27.77;49.10;100318.81;4994867;28;20030;-74
2022/08/05 08:25:20;;;;;;;16.08;14.85;;;;;;;27.51;49.47;100313.69;4986234;28;20030;-74
2022/08/05 08:27:46;;;;;;;18.90;17.30;;;;;;;27.40;49.66;100316.38;4983322;28;20034;-74
2022/08/05 08:30:12;;;;;;;15.52;14.32;;;;;;;27.41;49.87;100319.97;4991860;28;20393;-74
2022/08/05 08:32:37;;;;;;;14.52;13.50;;;;;;;27.53;49.94;100318.97;4988353;28;20128;-74
2022/08/05 08:35:03;;;;;;;15.48;14.48;;;;;;;27.64;49.66;100312.69;4987748;28;20121;-74
2022/08/05 08:37:29;;;;;;;15.43;14.32;;;;;;;27.87;48.94;100322.53;4987928;28;20047;-74
2022/08/05 08:39:54;;;;;;;16.50;15.20;;;;;;;27.93;49.06;100319.34;4982553;28;20072;-75
2022/08/05 08:42:20;;;;;;;15.57;14.18;;;;;;;28.11;48.56;100316.97;4984825;28;20413;-75
2022/08/05 08:44:46;;;;;;;17.67;16.25;;;;;;;28.27;47.54;100312.94;4982053;28;20035;-74
2022/08/05 08:47:12;;;;;;;17.80;16.58;;;;;;;28.41;46.55;100318.09;4984144;28;20042;-74
2022/08/05 08:49:42;;;;;;;16.50;15.18;;;;;;;28.50;46.28;100311.06;4983213;28;20046;-74
2022/08/05 08:52:16;;;;;;;19.05;17.42;;;;;;;28.67;45.68;100315.06;4967698;28;20038;-75
2022/08/05 08:54:42;;;;;;;20.35;18.77;;;;;;;28.96;45.75;100317.97;4982214;28;20042;-74
2022/08/05 08:57:08;;;;;;;17.13;15.98;;;;;;;28.98;44.38;100319.56;4991835;28;20120;-74
2022/08/05 08:59:34;;;;;;;20.25;18.85;;;;;;;29.05;44.07;100323.47;4984110;28;20116;-74
2022/08/05 09:02:05;;;;;;;21.08;19.17;;;;;;;29.02;44.34;100317.44;4983820;28;20049;-75
2022/08/05 09:04:32;;;;;;;17.13;15.85;;;;;;;29.21;43.66;100328.47;4963963;28;20038;-75
2022/08/05 09:06:57;;;;;;;19.42;18.23;;;;;;;29.24;43.55;100325.47;4988685;28;20030;-74
2022/08/05 09:09:23;;;;;;;18.50;17.02;;;;;;;29.18;43.46;100317.84;4983097;28;20045;-74
2022/08/05 09:11:48;;;;;;;18.70;17.50;;;;;;;29.29;44.04;100319.59;4983034;28;20042;-75
2022/08/05 09:14:14;;;;;;;20.00;18.60;;;;;;;29.56;43.46;100316.31;4981134;28;20034;-74
2022/08/05 09:16:39;;;;;;;20.40;19.00;;;;;;;29.86;42.57;100326.31;4992773;28;20122;-75
2022/08/05 09:19:07;;;;;;;19.50;18.30;;;;;;;29.97;41.91;100333.50;4994932;28;20416;-74
2022/08/05 09:21:33;;;;;;;18.33;17.23;;;;;;;30.20;41.83;100341.44;4989663;28;20038;-74
2022/08/05 09:24:04;;;;;;;20.90;19.48;;;;;;;30.26;41.20;100341.78;4984350;28;20022;-74
2022/08/05 09:26:29;;;;;;;18.35;17.00;;;;;;;30.46;41.49;100337.19;4984744;28;20053;-74
2022/08/05 09:29:00;;;;;;;19.35;18.25;;;;;;;30.47;40.97;100321.72;4981110;28;20034;-74
2022/08/05 09:31:25;;;;;;;22.67;21.27;;;;;;;30.36;41.11;100328.16;4982921;28;20096;-75
2022/08/05 09:34:00;;;;;;;17.67;16.27;;;;;;;30.06;41.81;100324.50;4981486;28;20046;-74
2022/08/05 09:36:49;;;;;;;20.42;19.23;;;;;;;29.99;41.78;100325.22;4980314;28;20087;-75
2022/08/05 09:39:16;;;;;;;17.27;16.08;;;;;;;30.27;41.83;100329.03;4987238;28;20065;-74
2022/08/05 09:41:59;;;;;;;21.77;20.58;;;;;;;30.40;41.11;100313.28;4989911;28;20034;-75
2022/08/05 09:44:42;;;;;;;19.38;18.17;;;;;;;30.41;40.48;100320.44;4990318;28;20054;-74
2022/08/05 09:47:10;;;;;;;18.33;17.20;;;;;;;30.39;40.87;100318.84;4990753;28;20037;-75
2022/08/05 09:49:51;;;;;;;19.48;18.27;;;;;;;30.35;40.40;100308.25;4993170;28;20493;-75
2022/08/05 09:52:33;;;;;;;17.20;16.10;;;;;;;30.45;39.71;100308.25;4989295;28;20496;-75
2022/08/05 09:55:04;;;;;;;20.95;19.75;;;;;;;30.41;39.94;100301.38;4984442;28;20031;-74
2022/08/05 09:57:35;;;;;;;18.85;17.63;;;;;;;30.44;40.09;100303.78;4981216;28;20038;-75
2022/08/05 10:00:14;;;;;;;18.00;16.90;;;;;;;30.58;39.78;100292.50;4985108;28;20508;-75
2022/08/05 10:02:40;;;;;;;17.63;16.42;;;;;;;30.65;39.16;100290.03;4980881;28;20035;-74
2022/08/05 10:05:15;;;;;;;21.33;19.92;;;;;;;30.86;38.93;100292.63;4984159;28;20057;-74
2022/08/05 10:07:48;;;;;;;17.10;16.10;;;;;;;30.94;38.23;100286.44;4987543;28;20065;-74
2022/08/05 10:10:15;;;;;;;17.67;16.67;;;;;;;31.06;38.57;100289.84;4983420;28;20083;-74
2022/08/05 10:12:53;;;;;;;18.90;17.25;;;;;;;31.10;38.71;100272.19;4988192;28;20088;-75
2022/08/05 10:15:24;;;;;;;17.90;16.77;;;;;;;31.26;38.18;100264.25;4954024;28;20030;-75
2022/08/05 10:18:08;;;;;;;17.25;16.02;;;;;;;31.43;36.93;100266.22;4981796;28;20069;-75
2022/08/05 10:20:38;;;;;;;20.35;18.65;;;;;;;31.41;37.75;100257.34;4982994;28;20096;-74
2022/08/05 10:23:04;;;;;;;18.63;17.55;;;;;;;31.71;36.97;100263.50;4991472;28;20531;-74
2022/08/05 10:25:29;;;;;;;18.42;17.15;;;;;;;31.79;37.53;100254.53;4959337;28;20050;-74
2022/08/05 10:27:56;;;;;;;17.33;16.33;;;;;;;32.05;36.42;100241.88;4965550;28;20063;-74
2022/08/05 10:30:21;;;;;;;19.48;17.75;;;;;;;32.35;36.34;100234.31;4971883;28;20031;-74
2022/08/05 10:32:47;;;;;;;16.50;15.48;;;;;;;32.48;35.11;100233.94;4953399;28;20041;-74
2022/08/05 10:35:14;;;;;;;15.07;14.07;;;;;;;32.57;35.08;100233.00;4968956;28;20030;-74
2022/08/05 10:37:41;;;;;;;19.35;18.10;;;;;;;32.87;34.69;100228.06;4970155;28;20035;-74
2022/08/05 10:40:17;;;;;;;17.48;16.48;;;;;;;32.73;35.33;100233.09;4969313;28;20035;-74
2022/08/05 10:42:49;;;;;;;17.05;16.13;;;;;;;32.66;33.63;100229.28;4967199;28;20046;-74
2022/08/05 10:45:15;;;;;;;17.15;16.05;;;;;;;32.71;34.27;100226.09;4971736;28;20118;-74
2022/08/05 10:47:43;;;;;;;17.33;16.33;;;;;;;33.07;33.94;100221.38;4972397;28;20137;-74
2022/08/05 10:50:12;;;;;;;19.60;18.48;;;;;;;33.52;33.16;100228.41;4968920;28;20039;-74
2022/08/05 10:52:46;;;;;;;18.00;16.92;;;;;;;33.42;33.17;100229.59;4967951;28;20074;-74
2022/08/05 10:55:13;;;;;;;19.45;18.27;;;;;;;33.60;32.33;100247.63;4969082;28;20037;-74
2022/08/05 10:57:44;;;;;;;17.75;16.85;;;;;;;33.49;32.24;100245.16;4969756;28;20043;-74
2022/08/05 11:00:11;;;;;;;;;;;;;;;33.63;31.91;100248.31;4958261;28;20039;-72
2022/08/05 11:02:36;;;;;;;17.77;16.85;;;;;;;34.16;31.44;100241.63;4971411;28;19914;-72
2022/08/05 11:05:08;;;;;;;19.20;17.85;;;;;;;34.62;30.88;100233.78;4965380;28;20038;-72
2022/08/05 11:07:34;;;;;;;20.05;18.55;;;;;;;35.14;29.69;100224.31;4964891;28;20141;-72
2022/08/05 11:10:01;;;;;;;19.65;18.00;;;;;;;35.42;30.00;100239.25;4967314;28;20091;-72
2022/08/05 11:12:45;;;;;;;18.05;16.95;;;;;;;35.40;29.17;100240.47;4964079;28;20054;-72
2022/08/05 11:15:29;;;;;;;18.70;17.60;;;;;;;35.42;29.25;100244.75;4957124;28;20039;-72